Terminal Aerodrome Forecast
Issued by NWS Cleveland, OH

Home | Current Version | Previous Version | Graphics & Text | Print | Product List | Glossary On
Versions: 1 2 3 4 5 6 7 8 9 10 11 12 13 14 15
478
FTUS41 KCLE 070330 AAA
TAFCAK
TAF AMD
KCAK 070330Z 0704/0724 28015G25KT 1SM BR OVC004
     FM070600 27012G20KT 3SM BR OVC006
     FM070900 26010G18KT P6SM OVC015
     FM071400 25010KT P6SM OVC030
     FM071700 24008KT P6SM OVC100=

USA.gov is the U.S. government's official web portal to all federal, state and local government web resources and services.